createdAt,value
2019-05-10T00:01:08.006Z,0
2019-05-10T00:02:20.272Z,0
2019-05-10T00:03:32.470Z,0
2019-05-10T00:04:44.674Z,0
2019-05-10T00:05:56.866Z,0
2019-05-10T00:07:09.069Z,0
2019-05-10T00:08:21.258Z,0
2019-05-10T00:09:33.458Z,0
2019-05-10T00:10:45.657Z,0
2019-05-10T00:11:57.854Z,0
2019-05-10T00:13:10.055Z,0
2019-05-10T00:14:22.254Z,0
2019-05-10T00:15:34.458Z,0
2019-05-10T00:16:46.660Z,0
2019-05-10T00:17:58.852Z,0
2019-05-10T00:19:11.068Z,0
2019-05-10T00:20:23.261Z,0
2019-05-10T00:21:35.460Z,0
2019-05-10T00:22:47.000Z,0
2019-05-10T00:23:59.852Z,0
2019-05-10T00:25:12.004Z,0
2019-05-10T00:26:24.245Z,0
2019-05-10T00:27:36.446Z,0
2019-05-10T00:28:48.650Z,0
2019-05-10T00:30:00.849Z,0
2019-05-10T00:31:13.040Z,0
2019-05-10T00:32:25.245Z,0
2019-05-10T00:33:37.044Z,0
2019-05-10T00:36:01.844Z,0
2019-05-10T00:37:14.052Z,0
2019-05-10T00:38:26.246Z,0
2019-05-10T00:39:38.447Z,0
2019-05-10T00:40:50.064Z,0
2019-05-10T00:42:02.846Z,0
2019-05-10T00:43:15.044Z,0
2019-05-10T00:44:27.247Z,0
2019-05-10T00:45:39.444Z,0
2019-05-10T00:46:51.626Z,0
2019-05-10T00:48:03.835Z,0
2019-05-10T00:49:16.042Z,0
2019-05-10T00:50:28.235Z,0
2019-05-10T00:51:40.437Z,0
2019-05-10T00:52:52.063Z,0
2019-05-10T00:54:04.921Z,0
2019-05-10T00:55:17.032Z,0
2019-05-10T00:56:29.023Z,0
2019-05-10T00:57:41.433Z,0
2019-05-10T00:58:53.626Z,0
2019-05-10T01:00:05.826Z,0
2019-05-10T01:01:18.037Z,0
2019-05-10T01:02:30.234Z,0
2019-05-10T01:03:42.417Z,0
2019-05-10T01:04:54.621Z,0
2019-05-10T01:06:06.825Z,0
2019-05-10T01:07:19.003Z,0
2019-05-10T01:08:31.226Z,0
2019-05-10T01:09:43.665Z,0
2019-05-10T01:10:55.758Z,0
2019-05-10T01:12:07.083Z,0
2019-05-10T01:13:20.021Z,0
2019-05-10T01:14:32.222Z,0
2019-05-10T01:15:44.429Z,0
2019-05-10T01:16:56.628Z,0
2019-05-10T01:18:08.825Z,0
2019-05-10T01:19:21.024Z,0
2019-05-10T01:20:33.210Z,0
2019-05-10T01:21:45.410Z,0
2019-05-10T01:22:57.610Z,0
2019-05-10T01:24:09.811Z,0
2019-05-10T01:25:22.012Z,0
2019-05-10T01:26:34.205Z,0
2019-05-10T01:28:58.613Z,0
2019-05-10T01:30:10.829Z,0
2019-05-10T01:31:23.055Z,0
2019-05-10T01:32:35.245Z,0
2019-05-10T01:33:47.411Z,0
2019-05-10T01:34:59.060Z,0
2019-05-10T01:36:11.817Z,0
2019-05-10T01:37:24.025Z,0
2019-05-10T01:38:36.209Z,0
2019-05-10T01:39:48.406Z,0
2019-05-10T01:41:00.605Z,0
2019-05-10T01:42:12.079Z,0
2019-05-10T01:43:25.009Z,0
2019-05-10T01:44:37.019Z,0
2019-05-10T01:45:49.395Z,0
2019-05-10T01:47:01.599Z,0
2019-05-10T01:48:13.821Z,0
2019-05-10T01:49:26.005Z,0
2019-05-10T01:50:38.197Z,0
2019-05-10T01:51:50.399Z,0
2019-05-10T01:53:02.600Z,0
2019-05-10T01:54:14.799Z,0
2019-05-10T01:55:26.999Z,0
2019-05-10T01:56:39.187Z,0
2019-05-10T01:57:51.392Z,0
2019-05-10T01:59:03.060Z,0
2019-05-10T02:00:15.787Z,0
2019-05-10T02:01:27.988Z,0
2019-05-10T02:02:40.182Z,0
2019-05-10T02:03:52.398Z,0
2019-05-10T02:05:04.589Z,0
2019-05-10T02:06:16.787Z,0
2019-05-10T02:07:28.987Z,0
2019-05-10T02:08:41.018Z,0
2019-05-10T02:09:53.400Z,0
2019-05-10T02:11:05.577Z,0
2019-05-10T02:12:17.077Z,0
2019-05-10T02:13:29.977Z,0
2019-05-10T02:14:42.175Z,0
2019-05-10T02:15:54.378Z,0
2019-05-10T02:17:06.576Z,0
2019-05-10T02:18:18.783Z,0
2019-05-10T02:19:30.979Z,0
2019-05-10T02:20:43.179Z,0
2019-05-10T02:21:55.375Z,0
2019-05-10T02:23:07.578Z,0
2019-05-10T02:24:19.775Z,0
2019-05-10T02:25:31.959Z,0
2019-05-10T02:26:44.165Z,0
2019-05-10T02:27:56.367Z,0
2019-05-10T02:29:08.567Z,0
2019-05-10T02:30:20.765Z,0
2019-05-10T02:31:32.953Z,0
2019-05-10T02:32:45.163Z,0
2019-05-10T02:33:57.367Z,0
2019-05-10T02:35:09.560Z,0
2019-05-10T02:36:21.763Z,0
2019-05-10T02:37:33.964Z,0
2019-05-10T02:38:46.163Z,0
2019-05-10T02:39:58.363Z,0
2019-05-10T02:41:10.545Z,0
2019-05-10T02:42:22.811Z,0
2019-05-10T02:43:34.969Z,0
2019-05-10T02:44:47.156Z,0
2019-05-10T02:45:59.356Z,0
2019-05-10T02:47:11.559Z,0
2019-05-10T02:48:23.768Z,0
2019-05-10T02:49:35.952Z,0
2019-05-10T02:50:48.161Z,0
2019-05-10T02:52:00.342Z,0
2019-05-10T02:53:12.553Z,0
2019-05-10T02:54:24.736Z,0
2019-05-10T02:55:36.981Z,0
2019-05-10T02:56:49.139Z,4
2019-05-10T02:58:01.340Z,4
2019-05-10T02:59:13.545Z,0
2019-05-10T03:00:25.747Z,0
2019-05-10T03:01:38.129Z,4
2019-05-10T03:02:50.189Z,0
2019-05-10T03:04:02.371Z,4
2019-05-10T03:05:14.543Z,4
2019-05-10T03:06:26.074Z,8
2019-05-10T03:07:38.939Z,8
2019-05-10T03:08:51.130Z,8
2019-05-10T03:10:03.333Z,8
2019-05-10T03:11:15.523Z,8
2019-05-10T03:12:27.073Z,12
2019-05-10T03:13:39.932Z,12
2019-05-10T03:14:52.127Z,12
2019-05-10T03:16:04.332Z,16
2019-05-10T03:17:16.540Z,20
2019-05-10T03:18:28.732Z,20
2019-05-10T03:19:40.973Z,20
2019-05-10T03:20:53.125Z,24
2019-05-10T03:22:05.334Z,28
2019-05-10T03:23:17.528Z,28
2019-05-10T03:24:29.718Z,28
2019-05-10T03:25:41.917Z,32
2019-05-10T03:26:54.012Z,28
2019-05-10T03:28:06.332Z,28
2019-05-10T03:29:18.516Z,32
2019-05-10T03:30:30.716Z,32
2019-05-10T03:31:42.916Z,36
2019-05-10T03:32:55.121Z,40
2019-05-10T03:34:07.386Z,44
2019-05-10T03:35:19.519Z,52
2019-05-10T03:36:31.718Z,64
2019-05-10T03:37:43.912Z,76
2019-05-10T03:38:56.108Z,84
2019-05-10T03:40:08.383Z,104
2019-05-10T03:41:20.523Z,116
2019-05-10T03:42:32.724Z,136
2019-05-10T03:43:44.900Z,156
2019-05-10T03:44:57.111Z,176
2019-05-10T03:46:09.333Z,196
2019-05-10T03:47:21.508Z,212
2019-05-10T03:48:33.706Z,220
2019-05-10T03:49:45.907Z,220
2019-05-10T03:50:58.100Z,208
2019-05-10T03:52:10.031Z,228
2019-05-10T03:53:22.050Z,236
2019-05-10T03:54:34.069Z,248
2019-05-10T03:55:46.898Z,256
2019-05-10T03:56:59.093Z,240
2019-05-10T03:58:11.349Z,224
2019-05-10T03:59:23.499Z,248
2019-05-10T04:00:35.007Z,288
2019-05-10T04:01:47.897Z,280
2019-05-10T04:03:00.096Z,312
2019-05-10T04:04:12.306Z,344
2019-05-10T04:05:24.505Z,356
2019-05-10T04:06:36.688Z,360
2019-05-10T04:07:48.895Z,396
2019-05-10T04:09:01.086Z,408
2019-05-10T04:10:13.298Z,412
2019-05-10T04:11:25.488Z,420
2019-05-10T04:12:37.685Z,428
2019-05-10T04:13:49.879Z,440
2019-05-10T04:15:02.083Z,480
2019-05-10T04:16:14.286Z,520
2019-05-10T04:17:26.479Z,544
2019-05-10T04:18:38.687Z,544
2019-05-10T04:19:50.889Z,524
2019-05-10T04:21:03.082Z,500
2019-05-10T04:22:15.281Z,488
2019-05-10T04:23:27.047Z,488
2019-05-10T04:24:39.677Z,500
2019-05-10T04:25:51.871Z,508
2019-05-10T04:27:04.072Z,524
2019-05-10T04:28:16.274Z,544
2019-05-10T04:29:28.484Z,576
2019-05-10T04:30:40.685Z,596
2019-05-10T04:31:52.874Z,656
2019-05-10T04:33:05.083Z,664
2019-05-10T04:34:17.280Z,664
2019-05-10T04:35:29.472Z,680
2019-05-10T04:36:41.066Z,700
2019-05-10T04:37:53.871Z,724
2019-05-10T04:39:06.071Z,772
2019-05-10T04:40:18.003Z,820
2019-05-10T04:41:30.470Z,864
2019-05-10T04:42:42.661Z,868
2019-05-10T04:43:54.861Z,880
2019-05-10T04:45:07.071Z,892
2019-05-10T04:46:19.255Z,988
2019-05-10T04:47:31.462Z,1032
2019-05-10T04:48:43.664Z,1108
2019-05-10T04:49:55.860Z,1200
2019-05-10T04:51:08.060Z,1264
2019-05-10T04:52:20.026Z,1304
2019-05-10T04:53:32.466Z,1336
2019-05-10T04:54:44.657Z,1372
2019-05-10T04:55:56.859Z,1412
2019-05-10T04:57:09.043Z,1476
2019-05-10T04:58:21.025Z,1516
2019-05-10T04:59:33.445Z,1568
2019-05-10T05:00:45.651Z,1576
2019-05-10T05:01:57.879Z,1596
2019-05-10T05:03:10.041Z,1640
2019-05-10T05:04:22.247Z,1684
2019-05-10T05:05:34.447Z,1748
2019-05-10T05:06:46.647Z,1828
2019-05-10T05:07:58.850Z,1920
2019-05-10T05:09:11.039Z,1984
2019-05-10T05:10:23.321Z,2040
2019-05-10T05:11:35.455Z,2104
2019-05-10T05:12:47.647Z,2176
2019-05-10T05:13:59.846Z,2244
2019-05-10T05:15:12.047Z,2276
2019-05-10T05:16:24.243Z,2316
2019-05-10T05:17:36.448Z,2448
2019-05-10T05:18:48.638Z,2504
2019-05-10T05:20:00.082Z,2372
2019-05-10T05:21:13.037Z,2168
2019-05-10T05:22:25.237Z,2004
2019-05-10T05:23:37.441Z,2000
2019-05-10T05:24:49.636Z,1900
2019-05-10T05:26:01.834Z,1856
2019-05-10T05:27:14.029Z,1800
2019-05-10T05:28:26.244Z,1736
2019-05-10T05:29:38.438Z,1708
2019-05-10T05:30:50.633Z,1720
2019-05-10T05:32:02.082Z,1764
2019-05-10T05:33:15.022Z,1688
2019-05-10T05:34:27.235Z,1668
2019-05-10T05:35:39.430Z,1564
2019-05-10T05:36:51.061Z,1504
2019-05-10T05:38:03.826Z,1408
2019-05-10T05:39:16.019Z,1340
2019-05-10T05:41:40.449Z,1340
2019-05-10T05:42:52.618Z,1416
2019-05-10T05:44:04.819Z,1520
2019-05-10T05:45:17.016Z,1672
2019-05-10T05:46:29.258Z,1792
2019-05-10T05:47:41.413Z,1976
2019-05-10T05:48:53.616Z,2088
2019-05-10T05:50:05.080Z,2120
2019-05-10T05:51:18.014Z,2196
2019-05-10T05:52:30.214Z,2292
2019-05-10T05:53:42.414Z,2356
2019-05-10T05:54:54.614Z,2408
2019-05-10T05:56:06.799Z,2388
2019-05-10T05:57:19.017Z,2316
2019-05-10T05:58:31.214Z,2288
2019-05-10T05:59:43.402Z,2268
2019-05-10T06:00:55.612Z,2232
2019-05-10T06:02:07.807Z,2172
2019-05-10T06:03:20.002Z,2072
2019-05-10T06:04:32.212Z,1952
2019-05-10T06:05:44.408Z,1896
2019-05-10T06:06:56.614Z,1840
2019-05-10T06:08:08.813Z,1800
2019-05-10T06:09:21.013Z,1776
2019-05-10T06:11:45.407Z,1696
2019-05-10T06:12:57.660Z,1684
2019-05-10T06:14:09.811Z,1636
2019-05-10T06:15:22.014Z,1696
2019-05-10T06:16:34.212Z,1744
2019-05-10T06:17:46.412Z,1808
2019-05-10T06:18:58.652Z,1848
2019-05-10T06:20:10.810Z,1888
2019-05-10T06:21:23.030Z,1892
2019-05-10T06:22:35.020Z,1912
2019-05-10T06:23:47.412Z,1932
2019-05-10T06:24:59.890Z,1960
2019-05-10T06:26:11.851Z,1956
2019-05-10T06:27:24.010Z,1944
2019-05-10T06:28:36.202Z,1896
2019-05-10T06:29:48.415Z,1804
2019-05-10T06:31:00.609Z,1720
2019-05-10T06:32:12.811Z,1684
2019-05-10T06:33:25.009Z,1664
2019-05-10T06:34:37.207Z,1652
2019-05-10T06:35:49.412Z,1624
2019-05-10T06:37:01.619Z,1680
2019-05-10T06:38:13.820Z,1716
2019-05-10T06:39:26.019Z,1712
2019-05-10T06:41:50.414Z,1640
2019-05-10T06:43:02.618Z,1596
2019-05-10T06:44:14.818Z,1536
2019-05-10T06:45:27.019Z,1588
2019-05-10T06:46:39.253Z,1680
2019-05-10T06:47:51.433Z,1808
2019-05-10T06:49:03.618Z,1968
2019-05-10T06:50:15.817Z,1988
2019-05-10T06:51:28.001Z,1948
2019-05-10T06:52:40.228Z,1940
2019-05-10T06:53:52.419Z,1912
2019-05-10T06:55:04.617Z,1868
2019-05-10T06:56:16.830Z,1824
2019-05-10T06:57:29.020Z,1840
2019-05-10T06:58:41.227Z,1836
2019-05-10T06:59:53.426Z,1636
2019-05-10T07:01:05.628Z,1584
2019-05-10T07:02:17.827Z,1680
2019-05-10T07:03:30.003Z,1740
2019-05-10T07:04:42.223Z,1656
2019-05-10T07:05:54.430Z,1564
2019-05-10T07:07:06.628Z,1668
2019-05-10T07:08:18.817Z,1580
2019-05-10T07:09:31.028Z,1416
2019-05-10T07:10:43.224Z,1300
2019-05-10T07:11:55.428Z,1204
2019-05-10T07:13:07.063Z,980
2019-05-10T07:14:19.820Z,936
2019-05-10T07:15:32.034Z,1144
2019-05-10T07:16:44.235Z,1284
2019-05-10T07:17:56.043Z,1260
2019-05-10T07:19:08.711Z,1288
2019-05-10T07:20:20.833Z,1548
2019-05-10T07:21:33.035Z,1684
2019-05-10T07:22:45.236Z,1820
2019-05-10T07:23:57.436Z,1940
2019-05-10T07:25:09.632Z,1792
2019-05-10T07:26:21.083Z,2096
2019-05-10T07:27:34.026Z,2532
2019-05-10T07:28:46.002Z,3024
2019-05-10T07:29:58.442Z,3176
2019-05-10T07:31:10.063Z,3528
2019-05-10T07:32:22.853Z,3220
2019-05-10T07:33:35.042Z,2716
2019-05-10T07:34:47.244Z,2660
2019-05-10T07:35:59.443Z,2532
2019-05-10T07:37:11.634Z,2408
2019-05-10T07:38:23.845Z,2208
2019-05-10T07:39:36.044Z,1720
2019-05-10T07:40:48.245Z,1288
2019-05-10T07:42:00.044Z,1124
2019-05-10T07:43:12.640Z,1028
2019-05-10T07:44:24.841Z,960
2019-05-10T07:45:37.044Z,952
2019-05-10T07:46:49.239Z,1016
2019-05-10T07:48:01.044Z,956
2019-05-10T07:49:13.657Z,900
2019-05-10T07:50:25.855Z,1000
2019-05-10T07:51:38.050Z,1156
2019-05-10T07:52:50.251Z,1576
2019-05-10T07:54:02.449Z,1944
2019-05-10T07:55:14.663Z,1568
2019-05-10T07:56:26.852Z,1856
2019-05-10T07:57:39.048Z,2288
2019-05-10T07:58:51.255Z,2268
2019-05-10T08:00:03.448Z,2256
2019-05-10T08:02:27.850Z,2288
2019-05-10T08:03:40.046Z,2440
2019-05-10T08:04:52.243Z,2824
2019-05-10T08:06:04.456Z,3256
2019-05-10T08:07:16.652Z,3584
2019-05-10T08:08:28.860Z,3808
2019-05-10T08:09:41.062Z,3888
2019-05-10T08:10:53.255Z,3872
2019-05-10T08:12:05.462Z,3820
2019-05-10T08:13:17.658Z,3720
2019-05-10T08:14:29.858Z,3968
2019-05-10T08:15:42.081Z,4332
2019-05-10T08:16:54.260Z,4432
2019-05-10T08:18:06.450Z,4400
2019-05-10T08:19:18.660Z,4244
2019-05-10T08:20:30.862Z,4096
2019-05-10T08:21:43.067Z,3940
2019-05-10T08:22:55.279Z,3800
2019-05-10T08:24:07.460Z,3748
2019-05-10T08:25:19.668Z,3672
2019-05-10T08:26:31.086Z,3560
2019-05-10T08:27:44.068Z,3616
2019-05-10T08:28:57.013Z,3660
2019-05-10T08:30:08.465Z,3420
2019-05-10T08:31:20.667Z,3668
2019-05-10T08:32:32.869Z,3380
2019-05-10T08:33:45.066Z,3092
2019-05-10T08:34:57.302Z,3004
2019-05-10T08:36:09.478Z,2640
2019-05-10T08:37:21.706Z,2592
2019-05-10T08:38:33.880Z,2668
2019-05-10T08:39:46.255Z,2736
2019-05-10T08:40:58.273Z,3000
2019-05-10T08:42:10.477Z,2716
2019-05-10T08:43:22.675Z,3288
2019-05-10T08:44:34.901Z,3308
2019-05-10T08:45:47.010Z,3772
2019-05-10T08:46:59.269Z,3232
2019-05-10T08:48:11.484Z,3632
2019-05-10T08:49:23.673Z,3800
2019-05-10T08:50:35.880Z,3656
2019-05-10T08:51:48.092Z,4292
2019-05-10T08:53:00.284Z,5524
2019-05-10T08:54:12.494Z,5772
2019-05-10T08:55:24.686Z,5828
2019-05-10T08:56:36.883Z,6048
2019-05-10T08:57:49.079Z,5224
2019-05-10T08:59:01.284Z,5644
2019-05-10T09:00:13.484Z,5288
2019-05-10T09:01:25.722Z,5164
2019-05-10T09:02:37.884Z,5184
2019-05-10T09:03:50.085Z,4656
2019-05-10T09:05:02.029Z,4740
2019-05-10T09:07:26.709Z,4884
2019-05-10T09:08:38.901Z,4732
2019-05-10T09:11:03.379Z,3788
2019-05-10T09:12:15.492Z,3984
2019-05-10T09:13:27.006Z,4088
2019-05-10T09:14:39.894Z,3900
2019-05-10T09:15:52.136Z,4632
2019-05-10T09:17:04.301Z,4860
2019-05-10T09:18:16.501Z,4384
2019-05-10T09:19:28.714Z,4300
2019-05-10T09:20:40.896Z,3976
2019-05-10T09:21:53.101Z,4352
2019-05-10T09:23:05.300Z,4136
2019-05-10T09:24:17.879Z,4732
2019-05-10T09:25:29.700Z,5980
2019-05-10T09:26:41.900Z,7216
2019-05-10T09:27:54.099Z,7040
2019-05-10T09:29:06.303Z,6788
2019-05-10T09:30:18.050Z,6172
2019-05-10T09:31:30.075Z,5196
2019-05-10T09:32:42.929Z,4452
2019-05-10T09:33:55.108Z,4016
2019-05-10T09:35:07.561Z,4624
2019-05-10T09:36:19.522Z,5012
2019-05-10T09:37:31.710Z,5028
2019-05-10T09:38:43.913Z,5312
2019-05-10T09:39:56.136Z,5464
2019-05-10T09:41:08.354Z,5840
2019-05-10T09:42:20.517Z,6384
2019-05-10T09:43:32.702Z,7124
2019-05-10T09:44:44.920Z,6424
2019-05-10T09:45:57.122Z,5840
2019-05-10T09:47:09.321Z,4992
2019-05-10T09:48:21.520Z,4648
2019-05-10T09:49:33.717Z,4340
2019-05-10T09:50:45.920Z,3820
2019-05-10T09:51:58.121Z,2592
2019-05-10T09:53:10.339Z,2164
2019-05-10T09:54:22.526Z,2032
2019-05-10T09:55:34.722Z,1480
2019-05-10T09:56:46.919Z,1168
2019-05-10T09:57:59.121Z,912
2019-05-10T09:59:11.349Z,752
2019-05-10T10:00:23.530Z,748
2019-05-10T10:01:35.728Z,936
2019-05-10T10:02:47.925Z,972
2019-05-10T10:04:00.135Z,1016
2019-05-10T10:05:12.341Z,1176
2019-05-10T10:06:24.519Z,1244
2019-05-10T10:07:36.728Z,1168
2019-05-10T10:08:48.930Z,1128
2019-05-10T10:11:13.356Z,1024
2019-05-10T10:12:25.005Z,812
2019-05-10T10:13:37.733Z,708
2019-05-10T10:14:49.929Z,776
2019-05-10T10:16:02.130Z,896
2019-05-10T10:17:14.033Z,1144
2019-05-10T10:18:26.054Z,1208
2019-05-10T10:19:38.736Z,1516
2019-05-10T10:20:50.009Z,1644
2019-05-10T10:22:03.136Z,1700
2019-05-10T10:23:15.334Z,1852
2019-05-10T10:24:27.053Z,1988
2019-05-10T10:25:39.770Z,2116
2019-05-10T10:26:51.094Z,2236
2019-05-10T10:28:04.142Z,2420
2019-05-10T10:29:16.347Z,2600
2019-05-10T10:30:28.541Z,2692
2019-05-10T10:31:40.744Z,2792
2019-05-10T10:32:52.934Z,2724
2019-05-10T10:34:05.141Z,2152
2019-05-10T10:35:17.356Z,1688
2019-05-10T10:36:29.543Z,1556
2019-05-10T10:37:41.765Z,1524
2019-05-10T10:38:53.951Z,1296
2019-05-10T10:40:06.200Z,960
2019-05-10T10:41:18.354Z,944
2019-05-10T10:42:30.577Z,916
2019-05-10T10:44:54.957Z,944
2019-05-10T10:46:07.153Z,1016
2019-05-10T10:47:19.358Z,1092
2019-05-10T10:48:31.572Z,1196
2019-05-10T10:49:43.768Z,1344
2019-05-10T10:50:55.982Z,1632
2019-05-10T10:52:08.162Z,2016
2019-05-10T10:53:20.396Z,2336
2019-05-10T10:54:32.563Z,2484
2019-05-10T10:55:44.755Z,2616
2019-05-10T10:56:56.966Z,3004
2019-05-10T10:58:09.164Z,3808
2019-05-10T10:59:21.372Z,4320
2019-05-10T11:00:33.625Z,4672
2019-05-10T11:01:45.772Z,5208
2019-05-10T11:02:57.972Z,6036
2019-05-10T11:04:10.175Z,6672
2019-05-10T11:05:22.003Z,6696
2019-05-10T11:06:34.571Z,6324
2019-05-10T11:07:46.775Z,6008
2019-05-10T11:08:58.968Z,5600
2019-05-10T11:10:11.352Z,5120
2019-05-10T11:11:23.392Z,5272
2019-05-10T11:12:35.839Z,5404
2019-05-10T11:13:47.078Z,5952
2019-05-10T11:14:59.984Z,5908
2019-05-10T11:16:12.186Z,5760
2019-05-10T11:17:24.038Z,4740
2019-05-10T11:18:36.579Z,3860
2019-05-10T11:19:48.786Z,3824
2019-05-10T11:21:01.014Z,2648
2019-05-10T11:22:13.185Z,2048
2019-05-10T11:23:25.800Z,2080
2019-05-10T11:24:37.598Z,1832
2019-05-10T11:25:49.784Z,1664
2019-05-10T11:27:01.991Z,1848
2019-05-10T11:28:14.209Z,1764
2019-05-10T11:29:26.384Z,1816
2019-05-10T11:30:38.740Z,2636
2019-05-10T11:31:50.792Z,2412
2019-05-10T11:33:02.990Z,1692
2019-05-10T11:34:15.196Z,1340
2019-05-10T11:35:27.442Z,1168
2019-05-10T11:36:39.594Z,1384
2019-05-10T11:37:51.080Z,1508
2019-05-10T11:39:04.000Z,1160
2019-05-10T11:40:16.198Z,1196
2019-05-10T11:41:28.409Z,1156
2019-05-10T11:42:40.619Z,1228
2019-05-10T11:43:52.081Z,1432
2019-05-10T11:45:05.022Z,1328
2019-05-10T11:46:17.458Z,1400
2019-05-10T11:47:29.412Z,1752
2019-05-10T11:48:41.613Z,1952
2019-05-10T11:49:53.811Z,2000
2019-05-10T11:51:06.020Z,2060
2019-05-10T11:52:18.027Z,2096
2019-05-10T11:53:30.403Z,2212
2019-05-10T11:54:42.614Z,2332
2019-05-10T11:55:54.811Z,2404
2019-05-10T11:57:07.007Z,2640
2019-05-10T11:58:19.214Z,3036
2019-05-10T11:59:31.453Z,3288
2019-05-10T12:00:43.619Z,3360
2019-05-10T12:01:55.083Z,3416
2019-05-10T12:03:08.012Z,3520
2019-05-10T12:04:20.222Z,3636
2019-05-10T12:05:32.423Z,3484
2019-05-10T12:06:44.620Z,3304
2019-05-10T12:07:56.818Z,3004
2019-05-10T12:09:09.027Z,1804
2019-05-10T12:10:21.221Z,1712
2019-05-10T12:11:33.429Z,1712
2019-05-10T12:12:45.627Z,1556
2019-05-10T12:13:58.229Z,1500
2019-05-10T12:15:10.030Z,1580
2019-05-10T12:16:22.224Z,1668
2019-05-10T12:17:34.431Z,1784
2019-05-10T12:18:46.062Z,1812
2019-05-10T12:19:58.821Z,1908
2019-05-10T12:21:11.055Z,1964
2019-05-10T12:22:23.233Z,1936
2019-05-10T12:23:35.503Z,1996
2019-05-10T12:24:47.640Z,1984
2019-05-10T12:25:59.832Z,2084
2019-05-10T12:27:12.037Z,2188
2019-05-10T12:28:24.002Z,2260
2019-05-10T12:29:36.439Z,2460
2019-05-10T12:30:48.006Z,2524
2019-05-10T12:32:00.086Z,2652
2019-05-10T12:33:13.032Z,2964
2019-05-10T12:34:25.269Z,3312
2019-05-10T12:35:37.446Z,3532
2019-05-10T12:36:49.656Z,3796
2019-05-10T12:38:01.849Z,4236
2019-05-10T12:39:14.004Z,4644
2019-05-10T12:40:26.334Z,4820
2019-05-10T12:41:38.449Z,5212
2019-05-10T12:42:50.641Z,5320
2019-05-10T12:44:02.085Z,5336
2019-05-10T12:45:15.058Z,5416
2019-05-10T12:46:27.266Z,5000
2019-05-10T12:47:39.458Z,4612
2019-05-10T12:48:51.660Z,4020
2019-05-10T12:50:03.861Z,3732
2019-05-10T12:51:16.058Z,3148
2019-05-10T12:52:28.265Z,3028
2019-05-10T12:53:40.475Z,2612
2019-05-10T12:54:52.657Z,2108
2019-05-10T12:56:04.861Z,2032
2019-05-10T12:57:17.058Z,1348
2019-05-10T12:58:29.266Z,1340
2019-05-10T12:59:41.465Z,1968
2019-05-10T13:00:53.712Z,1468
2019-05-10T13:02:05.085Z,1824
2019-05-10T13:03:18.063Z,2028
2019-05-10T13:04:30.330Z,1800
2019-05-10T13:05:42.473Z,1940
2019-05-10T13:06:54.675Z,2168
2019-05-10T13:08:06.870Z,2516
2019-05-10T13:09:19.077Z,2752
2019-05-10T13:11:43.469Z,3056
2019-05-10T13:12:55.689Z,3400
2019-05-10T13:14:07.875Z,3508
2019-05-10T13:15:20.071Z,3368
2019-05-10T13:16:32.275Z,3196
2019-05-10T13:17:44.048Z,3136
2019-05-10T13:18:56.068Z,3168
2019-05-10T13:20:08.882Z,3208
2019-05-10T13:21:21.000Z,3248
2019-05-10T13:22:33.287Z,3404
2019-05-10T13:23:45.489Z,3668
2019-05-10T13:24:57.677Z,3840
2019-05-10T13:26:09.906Z,3488
2019-05-10T13:27:22.089Z,2844
2019-05-10T13:28:34.307Z,2320
2019-05-10T13:29:46.049Z,2144
2019-05-10T13:30:58.696Z,2156
2019-05-10T13:32:10.895Z,2028
2019-05-10T13:33:23.098Z,1688
2019-05-10T13:34:35.287Z,1660
2019-05-10T13:35:47.493Z,1152
2019-05-10T13:36:59.696Z,892
2019-05-10T13:38:11.897Z,824
2019-05-10T13:39:24.104Z,840
2019-05-10T13:40:36.306Z,1024
2019-05-10T13:41:48.504Z,1208
2019-05-10T13:43:00.702Z,1368
2019-05-10T13:44:12.920Z,1656
2019-05-10T13:45:25.115Z,1932
2019-05-10T13:46:37.302Z,2124
2019-05-10T13:47:49.496Z,2328
2019-05-10T13:49:01.712Z,2664
2019-05-10T13:50:13.918Z,3024
2019-05-10T13:51:26.107Z,3048
2019-05-10T13:52:38.313Z,2860
2019-05-10T13:53:50.051Z,2848
2019-05-10T13:55:02.921Z,2616
2019-05-10T13:56:14.912Z,2592
2019-05-10T13:57:27.121Z,2396
2019-05-10T13:58:39.320Z,2412
2019-05-10T13:59:51.521Z,2588
2019-05-10T14:01:03.726Z,2716
2019-05-10T14:02:15.927Z,2836
2019-05-10T14:03:28.013Z,3016
2019-05-10T14:04:40.318Z,4204
2019-05-10T14:05:52.524Z,4576
2019-05-10T14:07:04.720Z,4580
2019-05-10T14:08:16.091Z,4200
2019-05-10T14:09:29.132Z,3884
2019-05-10T14:10:41.378Z,3332
2019-05-10T14:11:53.530Z,2732
2019-05-10T14:13:05.734Z,2448
2019-05-10T14:14:17.940Z,2664
2019-05-10T14:15:30.135Z,2856
2019-05-10T14:16:42.392Z,2816
2019-05-10T14:17:54.530Z,2768
2019-05-10T14:19:06.731Z,2780
2019-05-10T14:20:18.094Z,2748
2019-05-10T14:21:31.140Z,2648
2019-05-10T14:22:43.347Z,2636
2019-05-10T14:23:55.545Z,1884
2019-05-10T14:25:07.739Z,1924
2019-05-10T14:26:19.941Z,1772
2019-05-10T14:27:32.135Z,1708
2019-05-10T14:28:44.351Z,1832
2019-05-10T14:29:56.554Z,2336
2019-05-10T14:31:08.076Z,2856
2019-05-10T14:32:20.949Z,3100
2019-05-10T14:33:33.153Z,3040
2019-05-10T14:34:45.356Z,3148
2019-05-10T14:35:57.569Z,3584
2019-05-10T14:37:09.074Z,3656
2019-05-10T14:38:21.947Z,3660
2019-05-10T14:39:34.160Z,3580
2019-05-10T14:40:46.360Z,3348
2019-05-10T14:41:58.566Z,3204
2019-05-10T14:43:10.759Z,3184
2019-05-10T14:44:22.993Z,2992
2019-05-10T14:45:35.161Z,2472
2019-05-10T14:46:47.363Z,1972
2019-05-10T14:47:59.553Z,1452
2019-05-10T14:49:11.764Z,1076
2019-05-10T14:50:23.969Z,640
2019-05-10T14:51:36.194Z,428
2019-05-10T14:52:48.368Z,520
2019-05-10T14:54:00.056Z,596
2019-05-10T14:55:12.769Z,620
2019-05-10T14:56:24.969Z,716
2019-05-10T14:57:37.167Z,784
2019-05-10T14:58:49.373Z,948
2019-05-10T15:00:01.597Z,1096
2019-05-10T15:01:13.077Z,1144
2019-05-10T15:02:25.980Z,1304
2019-05-10T15:03:38.179Z,1528
2019-05-10T15:04:50.038Z,1600
2019-05-10T15:06:02.577Z,1616
2019-05-10T15:07:14.771Z,1708
2019-05-10T15:08:26.978Z,1824
2019-05-10T15:09:39.181Z,1964
2019-05-10T15:10:51.371Z,2080
2019-05-10T15:12:03.594Z,2020
2019-05-10T15:13:15.787Z,1836
2019-05-10T15:14:27.989Z,1716
2019-05-10T15:15:40.189Z,1716
2019-05-10T15:16:52.038Z,1696
2019-05-10T15:18:04.587Z,1608
2019-05-10T15:19:16.787Z,1464
2019-05-10T15:20:29.010Z,1260
2019-05-10T15:21:41.189Z,1128
2019-05-10T15:22:53.389Z,1144
2019-05-10T15:24:05.585Z,1100
2019-05-10T15:25:17.797Z,1112
2019-05-10T15:26:29.997Z,1156
2019-05-10T15:27:42.241Z,1132
2019-05-10T15:30:06.651Z,1360
2019-05-10T15:31:18.798Z,1536
2019-05-10T15:32:30.099Z,1632
2019-05-10T15:33:43.196Z,1652
2019-05-10T15:34:55.407Z,1672
2019-05-10T15:36:07.590Z,1724
2019-05-10T15:37:19.784Z,1812
2019-05-10T15:38:31.985Z,2012
2019-05-10T15:39:44.194Z,2316
2019-05-10T15:40:56.384Z,2616
2019-05-10T15:42:08.586Z,2772
2019-05-10T15:43:20.788Z,2824
2019-05-10T15:44:33.235Z,2860
2019-05-10T15:45:45.189Z,2812
2019-05-10T15:46:57.037Z,2712
2019-05-10T15:48:09.580Z,2492
2019-05-10T15:49:21.776Z,2284
2019-05-10T15:50:33.974Z,2220
2019-05-10T15:51:46.177Z,1972
2019-05-10T15:52:58.380Z,1940
2019-05-10T15:54:10.597Z,1940
2019-05-10T15:55:22.789Z,1816
2019-05-10T15:56:34.979Z,1696
2019-05-10T15:57:47.180Z,1664
2019-05-10T15:58:59.378Z,1600
2019-05-10T16:00:11.588Z,1572
2019-05-10T16:01:23.816Z,1620
2019-05-10T16:02:35.097Z,1656
2019-05-10T16:03:48.158Z,1648
2019-05-10T16:05:00.364Z,1660
2019-05-10T16:06:12.005Z,1692
2019-05-10T16:07:24.755Z,1696
2019-05-10T16:08:36.969Z,1728
2019-05-10T16:09:49.274Z,1816
2019-05-10T16:11:01.365Z,1908
2019-05-10T16:12:13.566Z,1948
2019-05-10T16:13:25.757Z,1836
2019-05-10T16:14:37.095Z,1852
2019-05-10T16:15:50.165Z,1816
2019-05-10T16:17:02.356Z,1724
2019-05-10T16:18:14.555Z,1616
2019-05-10T16:19:26.754Z,1464
2019-05-10T16:20:38.946Z,1308
2019-05-10T16:21:51.163Z,1188
2019-05-10T16:23:03.356Z,1068
2019-05-10T16:24:15.547Z,896
2019-05-10T16:25:27.753Z,804
2019-05-10T16:26:40.148Z,688
2019-05-10T16:27:52.153Z,628
2019-05-10T16:29:04.356Z,612
2019-05-10T16:30:16.537Z,692
2019-05-10T16:31:28.744Z,820
2019-05-10T16:32:40.943Z,892
2019-05-10T16:33:53.143Z,884
2019-05-10T16:35:05.346Z,900
2019-05-10T16:36:17.544Z,1016
2019-05-10T16:37:29.745Z,1136
2019-05-10T16:38:41.944Z,1212
2019-05-10T16:39:54.164Z,1276